sensor_id;sensor_type;location;lat;lon;timestamp;pressure;altitude;pressure_sealevel;temperature;humidity
15314;BME280;7757;52.626;4.746;2023-02-18T00:00:43;101967.63;;;14.92;65.67
15314;BME280;7757;52.626;4.746;2023-02-18T00:03:30;101959.84;;;14.68;66.53
15314;BME280;7757;52.626;4.746;2023-02-18T00:06:18;101965.22;;;14.83;67.14
15314;BME280;7757;52.626;4.746;2023-02-18T00:09:04;101964.94;;;14.92;66.63
15314;BME280;7757;52.626;4.746;2023-02-18T00:11:52;101964.28;;;15.05;66.68
15314;BME280;7757;52.626;4.746;2023-02-18T00:14:37;101960.50;;;14.99;65.74
15314;BME280;7757;52.626;4.746;2023-02-18T00:17:22;101967.25;;;14.95;66.30
15314;BME280;7757;52.626;4.746;2023-02-18T00:20:10;101955.28;;;14.98;66.20
15314;BME280;7757;52.626;4.746;2023-02-18T00:22:55;101949.03;;;14.97;66.21
15314;BME280;7757;52.626;4.746;2023-02-18T00:25:40;101945.91;;;14.79;65.93
15314;BME280;7757;52.626;4.746;2023-02-18T00:28:26;101947.09;;;14.77;67.57
15314;BME280;7757;52.626;4.746;2023-02-18T00:31:13;101940.13;;;14.97;66.69
15314;BME280;7757;52.626;4.746;2023-02-18T00:33:59;101947.56;;;14.95;66.68
15314;BME280;7757;52.626;4.746;2023-02-18T00:36:46;101941.06;;;15.04;66.04
15314;BME280;7757;52.626;4.746;2023-02-18T00:39:31;101942.91;;;15.03;66.32
15314;BME280;7757;52.626;4.746;2023-02-18T00:42:16;101937.91;;;14.86;67.24
15314;BME280;7757;52.626;4.746;2023-02-18T00:45:02;101926.59;;;14.90;67.24
15314;BME280;7757;52.626;4.746;2023-02-18T00:47:48;101920.66;;;14.80;66.60
15314;BME280;7757;52.626;4.746;2023-02-18T00:50:33;101935.31;;;14.34;68.16
15314;BME280;7757;52.626;4.746;2023-02-18T00:53:20;101916.94;;;14.67;66.87
15314;BME280;7757;52.626;4.746;2023-02-18T00:56:06;101915.91;;;14.82;66.14
15314;BME280;7757;52.626;4.746;2023-02-18T00:58:51;101914.16;;;14.75;67.20
15314;BME280;7757;52.626;4.746;2023-02-18T01:01:37;101914.16;;;14.60;66.79
15314;BME280;7757;52.626;4.746;2023-02-18T01:04:23;101900.28;;;14.92;65.97
15314;BME280;7757;52.626;4.746;2023-02-18T01:07:08;101891.03;;;14.66;65.82
15314;BME280;7757;52.626;4.746;2023-02-18T01:09:55;101892.22;;;14.78;66.97
15314;BME280;7757;52.626;4.746;2023-02-18T01:12:41;101897.59;;;14.92;66.10
15314;BME280;7757;52.626;4.746;2023-02-18T01:15:26;101896.16;;;14.61;67.20
15314;BME280;7757;52.626;4.746;2023-02-18T01:18:13;101891.41;;;14.48;67.63
15314;BME280;7757;52.626;4.746;2023-02-18T01:20:59;101887.13;;;14.53;67.01
15314;BME280;7757;52.626;4.746;2023-02-18T01:23:44;101889.81;;;14.83;66.27
15314;BME280;7757;52.626;4.746;2023-02-18T01:26:31;101884.97;;;14.93;66.39
15314;BME280;7757;52.626;4.746;2023-02-18T01:29:16;101884.91;;;14.72;67.60
15314;BME280;7757;52.626;4.746;2023-02-18T01:32:02;101883.06;;;14.72;66.82
15314;BME280;7757;52.626;4.746;2023-02-18T01:34:47;101876.63;;;14.88;66.99
15314;BME280;7757;52.626;4.746;2023-02-18T01:37:33;101877.66;;;14.72;67.68
15314;BME280;7757;52.626;4.746;2023-02-18T01:40:20;101872.53;;;14.77;67.36
15314;BME280;7757;52.626;4.746;2023-02-18T01:43:10;101858.78;;;14.87;66.86
15314;BME280;7757;52.626;4.746;2023-02-18T01:46:04;101839.22;;;14.78;67.32
15314;BME280;7757;52.626;4.746;2023-02-18T01:48:53;101833.53;;;14.73;66.87
15314;BME280;7757;52.626;4.746;2023-02-18T01:51:43;101831.97;;;14.79;66.89
15314;BME280;7757;52.626;4.746;2023-02-18T01:54:31;101826.59;;;14.79;66.82
15314;BME280;7757;52.626;4.746;2023-02-18T01:57:20;101821.19;;;14.79;66.76
15314;BME280;7757;52.626;4.746;2023-02-18T02:00:10;101808.94;;;14.76;67.60
15314;BME280;7757;52.626;4.746;2023-02-18T02:02:56;101816.94;;;14.70;67.46
15314;BME280;7757;52.626;4.746;2023-02-18T02:05:41;101813.41;;;14.69;66.64
15314;BME280;7757;52.626;4.746;2023-02-18T02:08:27;101795.88;;;14.59;66.82
15314;BME280;7757;52.626;4.746;2023-02-18T02:11:29;101780.66;;;14.66;67.29
15314;BME280;7757;52.626;4.746;2023-02-18T02:14:28;101765.44;;;14.58;67.02
15314;BME280;7757;52.626;4.746;2023-02-18T02:17:27;101765.53;;;14.50;67.26
15314;BME280;7757;52.626;4.746;2023-02-18T02:20:28;101753.34;;;14.69;66.99
15314;BME280;7757;52.626;4.746;2023-02-18T02:23:38;101753.09;;;14.64;67.41
15314;BME280;7757;52.626;4.746;2023-02-18T02:33:42;101730.13;;;14.46;68.60
15314;BME280;7757;52.626;4.746;2023-02-18T02:36:37;101724.34;;;14.35;68.10
15314;BME280;7757;52.626;4.746;2023-02-18T02:39:29;101720.63;;;14.50;67.90
15314;BME280;7757;52.626;4.746;2023-02-18T02:42:22;101720.91;;;14.41;67.35
15314;BME280;7757;52.626;4.746;2023-02-18T02:45:15;101713.38;;;14.51;68.18
15314;BME280;7757;52.626;4.746;2023-02-18T02:48:09;101708.91;;;14.58;68.31
15314;BME280;7757;52.626;4.746;2023-02-18T02:51:04;101710.09;;;14.34;68.14
15314;BME280;7757;52.626;4.746;2023-02-18T02:53:53;101713.13;;;14.46;68.78
15314;BME280;7757;52.626;4.746;2023-02-18T02:56:38;101711.41;;;14.60;67.08
15314;BME280;7757;52.626;4.746;2023-02-18T02:59:24;101698.97;;;14.59;68.21
15314;BME280;7757;52.626;4.746;2023-02-18T03:02:22;101691.22;;;14.49;68.24
15314;BME280;7757;52.626;4.746;2023-02-18T03:05:22;101675.38;;;14.39;68.37
15314;BME280;7757;52.626;4.746;2023-02-18T03:08:25;101681.66;;;14.32;69.22
15314;BME280;7757;52.626;4.746;2023-02-18T03:11:16;101671.94;;;14.31;68.35
15314;BME280;7757;52.626;4.746;2023-02-18T03:14:06;101671.47;;;14.27;69.05
15314;BME280;7757;52.626;4.746;2023-02-18T03:16:58;101653.09;;;14.31;69.30
15314;BME280;7757;52.626;4.746;2023-02-18T03:19:49;101648.78;;;14.15;68.97
15314;BME280;7757;52.626;4.746;2023-02-18T03:22:38;101636.59;;;14.34;69.19
15314;BME280;7757;52.626;4.746;2023-02-18T03:25:25;101610.00;;;14.45;68.83
15314;BME280;7757;52.626;4.746;2023-02-18T03:28:16;101602.41;;;14.13;70.24
15314;BME280;7757;52.626;4.746;2023-02-18T03:31:05;101606.75;;;14.14;69.76
15314;BME280;7757;52.626;4.746;2023-02-18T03:33:56;101602.72;;;14.25;69.80
15314;BME280;7757;52.626;4.746;2023-02-18T03:36:43;101604.56;;;14.39;68.81
15314;BME280;7757;52.626;4.746;2023-02-18T03:39:31;101592.72;;;14.19;69.20
15314;BME280;7757;52.626;4.746;2023-02-18T03:42:18;101599.09;;;14.32;69.27
15314;BME280;7757;52.626;4.746;2023-02-18T03:45:05;101609.88;;;13.82;70.08
15314;BME280;7757;52.626;4.746;2023-02-18T03:47:51;101597.34;;;13.89;71.47
15314;BME280;7757;52.626;4.746;2023-02-18T03:50:36;101586.66;;;14.31;69.84
15314;BME280;7757;52.626;4.746;2023-02-18T03:53:21;101584.16;;;14.30;69.30
15314;BME280;7757;52.626;4.746;2023-02-18T03:56:06;101587.28;;;14.12;70.06
15314;BME280;7757;52.626;4.746;2023-02-18T03:58:52;101579.34;;;14.04;70.00
15314;BME280;7757;52.626;4.746;2023-02-18T04:01:39;101586.25;;;14.13;70.35
15314;BME280;7757;52.626;4.746;2023-02-18T04:04:24;101570.59;;;13.81;71.10
15314;BME280;7757;52.626;4.746;2023-02-18T04:07:10;101569.91;;;14.15;69.47
15314;BME280;7757;52.626;4.746;2023-02-18T04:09:55;101572.75;;;14.28;70.03
15314;BME280;7757;52.626;4.746;2023-02-18T04:12:40;101571.06;;;14.27;69.67
15314;BME280;7757;52.626;4.746;2023-02-18T04:15:26;101556.13;;;14.03;70.79
15314;BME280;7757;52.626;4.746;2023-02-18T04:18:13;101557.44;;;14.28;69.66
15314;BME280;7757;52.626;4.746;2023-02-18T04:20:58;101556.81;;;14.05;70.82
15314;BME280;7757;52.626;4.746;2023-02-18T04:23:43;101540.31;;;13.93;71.05
15314;BME280;7757;52.626;4.746;2023-02-18T04:26:29;101532.53;;;14.20;69.66
15314;BME280;7757;52.626;4.746;2023-02-18T04:29:14;101534.94;;;14.15;69.75
15314;BME280;7757;52.626;4.746;2023-02-18T04:32:00;101529.56;;;14.15;69.88
15314;BME280;7757;52.626;4.746;2023-02-18T04:34:46;101524.00;;;14.16;69.71
15314;BME280;7757;52.626;4.746;2023-02-18T04:37:32;101529.31;;;13.88;70.75
15314;BME280;7757;52.626;4.746;2023-02-18T04:40:17;101541.53;;;14.12;69.47
15314;BME280;7757;52.626;4.746;2023-02-18T04:43:03;101530.25;;;13.81;71.02
15314;BME280;7757;52.626;4.746;2023-02-18T04:45:48;101536.97;;;13.91;70.77
15314;BME280;7757;52.626;4.746;2023-02-18T04:48:34;101507.09;;;14.01;71.02
15314;BME280;7757;52.626;4.746;2023-02-18T04:51:21;101518.56;;;14.10;70.84
15314;BME280;7757;52.626;4.746;2023-02-18T04:54:06;101519.47;;;14.17;69.74
15314;BME280;7757;52.626;4.746;2023-02-18T04:56:51;101516.44;;;13.84;70.68
15314;BME280;7757;52.626;4.746;2023-02-18T04:59:37;101493.81;;;13.99;70.60
15314;BME280;7757;52.626;4.746;2023-02-18T05:02:23;101492.63;;;13.81;71.06
15314;BME280;7757;52.626;4.746;2023-02-18T05:05:08;101494.84;;;13.77;70.53
15314;BME280;7757;52.626;4.746;2023-02-18T05:07:55;101484.88;;;13.92;70.22
15314;BME280;7757;52.626;4.746;2023-02-18T05:10:40;101489.53;;;14.26;70.32
15314;BME280;7757;52.626;4.746;2023-02-18T05:13:26;101494.31;;;13.67;71.86
15314;BME280;7757;52.626;4.746;2023-02-18T05:16:11;101504.72;;;13.91;71.25
15314;BME280;7757;52.626;4.746;2023-02-18T05:18:56;101502.50;;;14.16;70.65
15314;BME280;7757;52.626;4.746;2023-02-18T05:21:42;101502.16;;;14.05;71.07
15314;BME280;7757;52.626;4.746;2023-02-18T05:24:29;101508.31;;;13.98;71.23
15314;BME280;7757;52.626;4.746;2023-02-18T05:27:14;101489.63;;;13.90;71.32
15314;BME280;7757;52.626;4.746;2023-02-18T05:29:59;101484.56;;;13.81;70.82
15314;BME280;7757;52.626;4.746;2023-02-18T05:32:45;101492.25;;;13.84;71.25
15314;BME280;7757;52.626;4.746;2023-02-18T05:35:30;101480.41;;;13.78;71.66
15314;BME280;7757;52.626;4.746;2023-02-18T05:38:16;101490.94;;;13.80;71.71
15314;BME280;7757;52.626;4.746;2023-02-18T05:41:02;101498.72;;;14.11;70.25
15314;BME280;7757;52.626;4.746;2023-02-18T05:43:47;101500.72;;;13.66;72.60
15314;BME280;7757;52.626;4.746;2023-02-18T05:46:50;101475.38;;;13.96;70.92
15314;BME280;7757;52.626;4.746;2023-02-18T05:49:38;101480.44;;;13.85;71.16
15314;BME280;7757;52.626;4.746;2023-02-18T05:52:23;101472.88;;;13.74;70.58
15314;BME280;7757;52.626;4.746;2023-02-18T05:55:09;101464.63;;;13.96;70.94
15314;BME280;7757;52.626;4.746;2023-02-18T05:57:55;101458.59;;;13.73;71.21
15314;BME280;7757;52.626;4.746;2023-02-18T06:00:41;101450.88;;;13.64;72.32
15314;BME280;7757;52.626;4.746;2023-02-18T06:03:26;101445.56;;;13.70;71.87
15314;BME280;7757;52.626;4.746;2023-02-18T06:06:12;101448.56;;;13.82;71.03
15314;BME280;7757;52.626;4.746;2023-02-18T06:08:57;101445.84;;;13.75;71.48
15314;BME280;7757;52.626;4.746;2023-02-18T06:11:42;101461.38;;;13.80;72.05
15314;BME280;7757;52.626;4.746;2023-02-18T06:14:29;101444.16;;;13.74;71.28
15314;BME280;7757;52.626;4.746;2023-02-18T06:17:15;101452.09;;;13.82;71.60
15314;BME280;7757;52.626;4.746;2023-02-18T06:20:01;101445.88;;;13.82;71.84
15314;BME280;7757;52.626;4.746;2023-02-18T06:22:47;101444.16;;;13.74;71.42
15314;BME280;7757;52.626;4.746;2023-02-18T06:25:32;101440.47;;;13.75;71.26
15314;BME280;7757;52.626;4.746;2023-02-18T06:28:18;101442.38;;;13.81;71.28
15314;BME280;7757;52.626;4.746;2023-02-18T06:31:04;101449.84;;;13.65;72.15
15314;BME280;7757;52.626;4.746;2023-02-18T06:33:50;101448.38;;;13.62;71.66
15314;BME280;7757;52.626;4.746;2023-02-18T06:36:38;101448.00;;;13.86;70.96
15314;BME280;7757;52.626;4.746;2023-02-18T06:39:23;101434.38;;;13.67;71.82
15314;BME280;7757;52.626;4.746;2023-02-18T06:42:08;101443.56;;;13.79;71.62
15314;BME280;7757;52.626;4.746;2023-02-18T06:44:54;101425.09;;;13.69;71.25
15314;BME280;7757;52.626;4.746;2023-02-18T06:47:40;101436.41;;;14.07;69.58
15314;BME280;7757;52.626;4.746;2023-02-18T06:50:25;101432.19;;;13.77;70.89
15314;BME280;7757;52.626;4.746;2023-02-18T06:53:11;101426.28;;;13.46;72.42
15314;BME280;7757;52.626;4.746;2023-02-18T06:55:56;101428.28;;;13.79;71.13
15314;BME280;7757;52.626;4.746;2023-02-18T06:58:42;101420.28;;;13.65;71.44
15314;BME280;7757;52.626;4.746;2023-02-18T07:01:27;101417.75;;;14.06;70.26
15314;BME280;7757;52.626;4.746;2023-02-18T07:04:14;101418.81;;;13.83;71.67
15314;BME280;7757;52.626;4.746;2023-02-18T07:06:59;101422.47;;;13.55;71.30
15314;BME280;7757;52.626;4.746;2023-02-18T07:09:44;101421.88;;;13.80;70.78
15314;BME280;7757;52.626;4.746;2023-02-18T07:12:30;101430.56;;;14.04;69.99
15314;BME280;7757;52.626;4.746;2023-02-18T07:15:16;101424.81;;;13.85;70.84
15314;BME280;7757;52.626;4.746;2023-02-18T07:18:03;101453.00;;;14.11;69.67
15314;BME280;7757;52.626;4.746;2023-02-18T07:20:50;101443.84;;;13.63;72.55
15314;BME280;7757;52.626;4.746;2023-02-18T07:23:35;101449.47;;;13.68;72.14
15314;BME280;7757;52.626;4.746;2023-02-18T07:26:21;101435.72;;;13.98;71.13
15314;BME280;7757;52.626;4.746;2023-02-18T07:29:06;101435.50;;;14.00;70.40
15314;BME280;7757;52.626;4.746;2023-02-18T07:31:51;101426.34;;;14.16;70.02
15314;BME280;7757;52.626;4.746;2023-02-18T07:34:37;101432.56;;;13.95;71.08
15314;BME280;7757;52.626;4.746;2023-02-18T07:37:24;101428.91;;;14.03;69.68
15314;BME280;7757;52.626;4.746;2023-02-18T07:40:12;101437.03;;;13.88;71.61
15314;BME280;7757;52.626;4.746;2023-02-18T07:42:58;101426.16;;;13.96;70.56
15314;BME280;7757;52.626;4.746;2023-02-18T07:45:43;101420.59;;;13.97;70.62
15314;BME280;7757;52.626;4.746;2023-02-18T07:48:29;101422.41;;;14.18;70.21
15314;BME280;7757;52.626;4.746;2023-02-18T07:51:14;101429.47;;;13.56;72.62
15314;BME280;7757;52.626;4.746;2023-02-18T07:54:01;101422.13;;;13.85;71.27
15314;BME280;7757;52.626;4.746;2023-02-18T07:56:46;101426.94;;;13.90;70.63
15314;BME280;7757;52.626;4.746;2023-02-18T07:59:32;101429.56;;;13.62;71.19
15314;BME280;7757;52.626;4.746;2023-02-18T08:02:19;101427.50;;;13.85;71.19
15314;BME280;7757;52.626;4.746;2023-02-18T08:05:04;101434.41;;;14.16;70.43
15314;BME280;7757;52.626;4.746;2023-02-18T08:07:50;101445.03;;;14.03;70.82
15314;BME280;7757;52.626;4.746;2023-02-18T08:10:36;101442.88;;;14.68;69.34
15314;BME280;7757;52.626;4.746;2023-02-18T08:13:22;101439.50;;;14.60;69.51
15314;BME280;7757;52.626;4.746;2023-02-18T08:16:08;101442.25;;;14.66;69.05
15314;BME280;7757;52.626;4.746;2023-02-18T08:18:54;101443.59;;;14.49;70.58
15314;BME280;7757;52.626;4.746;2023-02-18T08:21:39;101434.56;;;14.35;71.00
15314;BME280;7757;52.626;4.746;2023-02-18T08:24:25;101445.88;;;14.52;69.33
15314;BME280;7757;52.626;4.746;2023-02-18T08:27:11;101433.28;;;14.31;68.82
15314;BME280;7757;52.626;4.746;2023-02-18T08:29:57;101437.59;;;14.26;69.58
15314;BME280;7757;52.626;4.746;2023-02-18T08:32:43;101445.88;;;14.03;70.02
15314;BME280;7757;52.626;4.746;2023-02-18T08:35:28;101451.06;;;14.26;68.72
15314;BME280;7757;52.626;4.746;2023-02-18T08:38:14;101455.72;;;14.17;69.74
15314;BME280;7757;52.626;4.746;2023-02-18T08:41:01;101468.22;;;14.04;69.58
15314;BME280;7757;52.626;4.746;2023-02-18T08:43:48;101453.38;;;14.08;68.88
15314;BME280;7757;52.626;4.746;2023-02-18T08:46:33;101475.28;;;13.83;69.73
15314;BME280;7757;52.626;4.746;2023-02-18T08:49:19;101466.69;;;14.16;69.43
15314;BME280;7757;52.626;4.746;2023-02-18T08:52:07;101463.22;;;14.01;69.28
15314;BME280;7757;52.626;4.746;2023-02-18T08:54:52;101476.19;;;13.90;69.64
15314;BME280;7757;52.626;4.746;2023-02-18T08:57:37;101474.56;;;13.96;69.17
15314;BME280;7757;52.626;4.746;2023-02-18T09:00:24;101478.69;;;14.34;68.65
15314;BME280;7757;52.626;4.746;2023-02-18T09:03:11;101472.50;;;14.40;68.95
15314;BME280;7757;52.626;4.746;2023-02-18T09:05:58;101475.91;;;14.28;68.32
15314;BME280;7757;52.626;4.746;2023-02-18T09:08:43;101469.38;;;13.94;69.09
15314;BME280;7757;52.626;4.746;2023-02-18T09:11:29;101482.19;;;14.14;68.81
15314;BME280;7757;52.626;4.746;2023-02-18T09:14:14;101478.47;;;13.93;68.92
15314;BME280;7757;52.626;4.746;2023-02-18T09:17:01;101497.88;;;14.10;69.30
15314;BME280;7757;52.626;4.746;2023-02-18T09:19:47;101486.81;;;13.98;68.73
15314;BME280;7757;52.626;4.746;2023-02-18T09:22:32;101473.50;;;13.90;68.19
15314;BME280;7757;52.626;4.746;2023-02-18T09:25:18;101496.84;;;13.90;68.93
15314;BME280;7757;52.626;4.746;2023-02-18T09:28:03;101495.94;;;14.25;67.65
15314;BME280;7757;52.626;4.746;2023-02-18T09:30:49;101494.72;;;14.28;67.78
15314;BME280;7757;52.626;4.746;2023-02-18T09:33:36;101485.06;;;13.91;68.37
15314;BME280;7757;52.626;4.746;2023-02-18T09:36:21;101491.28;;;13.91;68.36
15314;BME280;7757;52.626;4.746;2023-02-18T09:39:07;101500.94;;;14.28;67.02
15314;BME280;7757;52.626;4.746;2023-02-18T09:41:53;101513.75;;;14.47;66.63
15314;BME280;7757;52.626;4.746;2023-02-18T09:44:42;101515.53;;;13.98;67.85
15314;BME280;7757;52.626;4.746;2023-02-18T09:47:32;101530.03;;;14.18;68.07
15314;BME280;7757;52.626;4.746;2023-02-18T09:50:21;101521.94;;;14.18;68.26
15314;BME280;7757;52.626;4.746;2023-02-18T09:53:10;101513.69;;;13.98;68.50
15314;BME280;7757;52.626;4.746;2023-02-18T09:55:56;101513.38;;;14.08;67.85
15314;BME280;7757;52.626;4.746;2023-02-18T09:58:44;101514.34;;;14.22;67.83
15314;BME280;7757;52.626;4.746;2023-02-18T10:01:32;101518.63;;;13.95;68.87
15314;BME280;7757;52.626;4.746;2023-02-18T10:04:22;101523.75;;;13.90;68.80
15314;BME280;7757;52.626;4.746;2023-02-18T10:07:17;101535.50;;;13.89;68.19
15314;BME280;7757;52.626;4.746;2023-02-18T10:10:15;101518.09;;;14.06;67.95
15314;BME280;7757;52.626;4.746;2023-02-18T10:13:03;101531.94;;;14.24;67.49
15314;BME280;7757;52.626;4.746;2023-02-18T10:15:52;101534.31;;;14.13;67.63
15314;BME280;7757;52.626;4.746;2023-02-18T10:18:40;101522.75;;;14.33;67.91
15314;BME280;7757;52.626;4.746;2023-02-18T10:21:28;101534.50;;;14.53;66.89
15314;BME280;7757;52.626;4.746;2023-02-18T10:24:27;101534.47;;;14.75;66.78
15314;BME280;7757;52.626;4.746;2023-02-18T10:27:17;101539.41;;;14.43;67.23
15314;BME280;7757;52.626;4.746;2023-02-18T10:30:20;101550.84;;;14.31;67.49
15314;BME280;7757;52.626;4.746;2023-02-18T10:33:16;101549.34;;;14.43;66.47
15314;BME280;7757;52.626;4.746;2023-02-18T10:36:17;101545.50;;;14.59;66.61
15314;BME280;7757;52.626;4.746;2023-02-18T10:39:33;101567.88;;;14.59;66.46
15314;BME280;7757;52.626;4.746;2023-02-18T10:42:26;101569.19;;;14.63;66.52
15314;BME280;7757;52.626;4.746;2023-02-18T10:45:24;101562.50;;;14.59;67.41
15314;BME280;7757;52.626;4.746;2023-02-18T10:48:16;101561.81;;;14.50;67.03
15314;BME280;7757;52.626;4.746;2023-02-18T10:51:13;101559.13;;;14.50;66.63
15314;BME280;7757;52.626;4.746;2023-02-18T10:54:00;101546.97;;;14.33;67.49
15314;BME280;7757;52.626;4.746;2023-02-18T10:56:48;101563.41;;;14.45;66.91
15314;BME280;7757;52.626;4.746;2023-02-18T10:59:33;101561.72;;;14.37;67.64
15314;BME280;7757;52.626;4.746;2023-02-18T11:02:19;101567.19;;;14.50;67.27
15314;BME280;7757;52.626;4.746;2023-02-18T11:05:17;101575.09;;;14.52;67.31
15314;BME280;7757;52.626;4.746;2023-02-18T11:08:07;101562.19;;;14.69;66.94
15314;BME280;7757;52.626;4.746;2023-02-18T11:10:54;101571.66;;;14.65;66.93
15314;BME280;7757;52.626;4.746;2023-02-18T11:13:41;101580.69;;;14.78;66.96
15314;BME280;7757;52.626;4.746;2023-02-18T11:16:37;101569.03;;;14.71;66.58
15314;BME280;7757;52.626;4.746;2023-02-18T11:19:32;101562.13;;;14.62;67.36
15314;BME280;7757;52.626;4.746;2023-02-18T11:22:20;101566.94;;;14.67;67.29
15314;BME280;7757;52.626;4.746;2023-02-18T11:25:19;101568.41;;;14.69;66.81
15314;BME280;7757;52.626;4.746;2023-02-18T11:28:06;101575.16;;;14.86;66.14
15314;BME280;7757;52.626;4.746;2023-02-18T11:31:19;101571.88;;;14.63;67.30
15314;BME280;7757;52.626;4.746;2023-02-18T11:34:05;101571.78;;;14.78;66.88
15314;BME280;7757;52.626;4.746;2023-02-18T11:37:07;101576.50;;;14.48;66.67
15314;BME280;7757;52.626;4.746;2023-02-18T11:39:54;101572.31;;;14.67;67.17
15314;BME280;7757;52.626;4.746;2023-02-18T11:42:40;101576.13;;;15.06;65.65
15314;BME280;7757;52.626;4.746;2023-02-18T11:45:28;101577.69;;;15.22;65.75
15314;BME280;7757;52.626;4.746;2023-02-18T11:48:17;101579.63;;;15.35;65.34
15314;BME280;7757;52.626;4.746;2023-02-18T11:51:03;101574.88;;;15.37;64.79
15314;BME280;7757;52.626;4.746;2023-02-18T11:54:02;101571.56;;;15.35;64.91
15314;BME280;7757;52.626;4.746;2023-02-18T11:56:54;101568.84;;;15.35;64.26
15314;BME280;7757;52.626;4.746;2023-02-18T11:59:40;101561.78;;;15.34;64.45
15314;BME280;7757;52.626;4.746;2023-02-18T12:02:31;101565.09;;;15.29;64.59
15314;BME280;7757;52.626;4.746;2023-02-18T12:05:21;101569.25;;;15.32;64.93
15314;BME280;7757;52.626;4.746;2023-02-18T12:08:13;101590.41;;;15.35;64.58
15314;BME280;7757;52.626;4.746;2023-02-18T12:11:02;101570.53;;;15.42;64.68
15314;BME280;7757;52.626;4.746;2023-02-18T12:13:52;101578.69;;;15.49;64.97
15314;BME280;7757;52.626;4.746;2023-02-18T12:16:45;101569.78;;;15.48;64.28
15314;BME280;7757;52.626;4.746;2023-02-18T12:19:50;101562.88;;;15.46;64.08
15314;BME280;7757;52.626;4.746;2023-02-18T12:22:43;101575.16;;;15.48;64.00
15314;BME280;7757;52.626;4.746;2023-02-18T12:25:37;101574.75;;;15.51;64.20
15314;BME280;7757;52.626;4.746;2023-02-18T12:28:36;101578.09;;;15.53;64.69
15314;BME280;7757;52.626;4.746;2023-02-18T12:31:34;101572.91;;;15.52;64.06
15314;BME280;7757;52.626;4.746;2023-02-18T12:34:35;101588.06;;;15.59;63.77
15314;BME280;7757;52.626;4.746;2023-02-18T12:37:40;101580.81;;;15.60;64.42
15314;BME280;7757;52.626;4.746;2023-02-18T12:40:48;101581.03;;;15.58;63.53
15314;BME280;7757;52.626;4.746;2023-02-18T12:43:43;101589.75;;;15.60;64.28
15314;BME280;7757;52.626;4.746;2023-02-18T12:46:41;101582.88;;;15.58;63.93
15314;BME280;7757;52.626;4.746;2023-02-18T12:49:43;101583.50;;;15.60;64.37
15314;BME280;7757;52.626;4.746;2023-02-18T12:52:39;101586.81;;;15.55;64.57
15314;BME280;7757;52.626;4.746;2023-02-18T12:55:39;101583.72;;;15.58;63.74
15314;BME280;7757;52.626;4.746;2023-02-18T12:58:37;101585.38;;;15.59;64.38
15314;BME280;7757;52.626;4.746;2023-02-18T13:01:41;101597.84;;;15.60;63.79
15314;BME280;7757;52.626;4.746;2023-02-18T13:04:39;101591.59;;;15.60;64.32
15314;BME280;7757;52.626;4.746;2023-02-18T13:07:43;101587.63;;;15.56;63.98
15314;BME280;7757;52.626;4.746;2023-02-18T13:10:51;101590.97;;;15.58;64.15
15314;BME280;7757;52.626;4.746;2023-02-18T13:13:45;101588.72;;;15.61;64.10
15314;BME280;7757;52.626;4.746;2023-02-18T13:16:33;101592.44;;;15.60;63.65
15314;BME280;7757;52.626;4.746;2023-02-18T13:19:21;101592.88;;;15.64;64.18
15314;BME280;7757;52.626;4.746;2023-02-18T13:22:09;101599.91;;;15.65;64.49
15314;BME280;7757;52.626;4.746;2023-02-18T13:24:57;101591.03;;;15.65;63.56
15314;BME280;7757;52.626;4.746;2023-02-18T13:27:47;101596.81;;;15.61;64.01
15314;BME280;7757;52.626;4.746;2023-02-18T13:30:43;101578.16;;;15.67;64.05
15314;BME280;7757;52.626;4.746;2023-02-18T13:33:36;101595.19;;;15.67;63.88
15314;BME280;7757;52.626;4.746;2023-02-18T13:36:32;101593.31;;;15.68;63.57
15314;BME280;7757;52.626;4.746;2023-02-18T13:39:22;101602.22;;;15.68;64.49
15314;BME280;7757;52.626;4.746;2023-02-18T13:42:23;101601.59;;;15.66;64.77
15314;BME280;7757;52.626;4.746;2023-02-18T13:45:28;101608.25;;;15.70;63.55
15314;BME280;7757;52.626;4.746;2023-02-18T13:48:25;101604.72;;;15.70;64.11
15314;BME280;7757;52.626;4.746;2023-02-18T13:51:13;101607.41;;;15.70;64.22
15314;BME280;7757;52.626;4.746;2023-02-18T13:54:03;101606.19;;;15.72;64.14
15314;BME280;7757;52.626;4.746;2023-02-18T13:56:50;101621.50;;;15.65;64.06
15314;BME280;7757;52.626;4.746;2023-02-18T13:59:40;101611.94;;;15.62;64.51
15314;BME280;7757;52.626;4.746;2023-02-18T14:02:32;101617.72;;;15.59;64.46
15314;BME280;7757;52.626;4.746;2023-02-18T14:05:23;101619.41;;;15.60;64.88
15314;BME280;7757;52.626;4.746;2023-02-18T14:08:11;101617.09;;;15.57;64.02
15314;BME280;7757;52.626;4.746;2023-02-18T14:11:23;101627.50;;;15.60;64.54
15314;BME280;7757;52.626;4.746;2023-02-18T14:14:30;101618.78;;;15.58;64.60
15314;BME280;7757;52.626;4.746;2023-02-18T14:17:40;101623.09;;;15.53;64.83
15314;BME280;7757;52.626;4.746;2023-02-18T14:21:04;101636.16;;;15.56;64.38
15314;BME280;7757;52.626;4.746;2023-02-18T14:24:00;101627.44;;;15.54;65.04
15314;BME280;7757;52.626;4.746;2023-02-18T14:26:47;101623.09;;;15.53;64.99
15314;BME280;7757;52.626;4.746;2023-02-18T14:29:33;101626.63;;;15.53;65.02
15314;BME280;7757;52.626;4.746;2023-02-18T14:32:19;101628.69;;;15.51;65.24
15314;BME280;7757;52.626;4.746;2023-02-18T14:35:24;101638.84;;;15.49;65.33
15314;BME280;7757;52.626;4.746;2023-02-18T14:38:29;101642.16;;;15.51;65.22
15314;BME280;7757;52.626;4.746;2023-02-18T14:41:38;101646.31;;;15.54;64.92
15314;BME280;7757;52.626;4.746;2023-02-18T14:44:43;101642.41;;;15.56;64.79
15314;BME280;7757;52.626;4.746;2023-02-18T14:47:44;101627.06;;;15.57;64.31
15314;BME280;7757;52.626;4.746;2023-02-18T14:50:41;101635.34;;;15.55;64.39
15314;BME280;7757;52.626;4.746;2023-02-18T14:53:29;101637.78;;;15.50;64.72
15314;BME280;7757;52.626;4.746;2023-02-18T14:56:17;101636.56;;;15.53;65.22
15314;BME280;7757;52.626;4.746;2023-02-18T14:59:03;101640.94;;;15.54;65.30
15314;BME280;7757;52.626;4.746;2023-02-18T15:01:53;101631.81;;;15.55;64.17
15314;BME280;7757;52.626;4.746;2023-02-18T15:04:38;101638.06;;;15.55;64.90